Time;durP1;ratioP1;P1;durP2;ratioP2;P2;SDS_P1;SDS_P2;PMS_P1;PMS_P2;Temp;Humidity;BMP_temperature;BMP_pressure;BME280_temperature;BME280_humidity;BME280_pressure;Samples;Min_cycle;Max_cycle;Signal;HPM_P1;HPM_P2
2021/06/25 00:01:50;;;;;;;2.20;0.90;;;17.40;99.90;;;;;;5112391;28;20139;-80
2021/06/25 00:04:17;;;;;;;2.10;0.95;;;17.40;99.90;;;;;;5112452;28;20131;-80
2021/06/25 00:06:44;;;;;;;3.20;0.90;;;17.40;99.90;;;;;;5112530;28;20134;-80
2021/06/25 00:09:13;;;;;;;1.70;0.90;;;17.40;99.90;;;;;;5112333;28;20131;-80
2021/06/25 00:11:40;;;;;;;2.10;0.80;;;17.40;99.90;;;;;;5113335;28;20147;-79
2021/06/25 00:14:08;;;;;;;3.03;0.77;;;17.40;99.90;;;;;;5113401;28;20449;-79
2021/06/25 00:16:35;;;;;;;2.95;0.90;;;17.40;99.90;;;;;;5113236;28;20132;-80
2021/06/25 00:19:03;;;;;;;3.50;0.90;;;17.50;99.90;;;;;;5112535;28;20076;-79
2021/06/25 00:21:30;;;;;;;1.63;0.80;;;17.50;99.90;;;;;;5124460;28;20451;-79
2021/06/25 00:23:57;;;;;;;2.40;0.90;;;17.50;99.90;;;;;;5123719;28;20062;-79
2021/06/25 00:26:25;;;;;;;1.50;0.77;;;17.50;99.90;;;;;;5116621;28;20528;-80
2021/06/25 00:28:52;;;;;;;2.05;0.77;;;17.50;99.90;;;;;;5113649;28;20135;-78
2021/06/25 00:31:19;;;;;;;1.58;0.77;;;17.50;99.90;;;;;;5113141;28;20134;-77
2021/06/25 00:33:46;;;;;;;1.90;0.80;;;17.50;99.90;;;;;;5112318;28;20552;-80
2021/06/25 00:36:13;;;;;;;2.42;0.75;;;17.50;99.90;;;;;;5125691;28;20071;-79
2021/06/25 00:38:40;;;;;;;1.40;0.60;;;17.50;99.90;;;;;;5124047;28;20079;-78
2021/06/25 00:41:07;;;;;;;1.83;0.80;;;17.50;99.90;;;;;;5113094;28;20086;-80
2021/06/25 00:43:38;;;;;;;2.10;0.98;;;17.50;99.90;;;;;;5113037;28;20111;-79
2021/06/25 00:46:05;;;;;;;1.80;0.90;;;17.50;99.90;;;;;;5112370;28;20134;-78
2021/06/25 00:48:33;;;;;;;2.00;1.00;;;17.50;99.90;;;;;;5113192;28;20581;-78
2021/06/25 00:51:00;;;;;;;2.28;1.15;;;17.50;99.90;;;;;;5112337;28;20139;-78
2021/06/25 00:53:28;;;;;;;2.10;0.90;;;17.40;99.90;;;;;;5112803;28;20119;-77
2021/06/25 00:55:56;;;;;;;6.95;1.10;;;17.40;99.90;;;;;;5113093;28;20073;-76
2021/06/25 00:58:23;;;;;;;2.28;0.90;;;17.40;99.90;;;;;;5112701;28;20075;-76
2021/06/25 01:00:51;;;;;;;2.08;1.00;;;17.40;99.90;;;;;;5112083;28;20082;-78
2021/06/25 01:03:18;;;;;;;1.92;0.93;;;17.30;99.90;;;;;;5112611;28;20122;-78
2021/06/25 01:05:45;;;;;;;3.00;1.10;;;17.30;99.90;;;;;;5115712;28;20130;-80
2021/06/25 01:08:13;;;;;;;1.90;0.98;;;17.30;99.90;;;;;;5116339;28;20519;-78
2021/06/25 01:10:42;;;;;;;2.20;1.10;;;17.30;99.90;;;;;;5116895;28;20127;-80
2021/06/25 01:13:10;;;;;;;1.95;0.90;;;17.30;99.90;;;;;;5115751;28;20135;-80
2021/06/25 01:15:38;;;;;;;2.33;1.02;;;17.30;99.90;;;;;;5115732;28;20536;-78
2021/06/25 01:18:07;;;;;;;3.08;1.20;;;17.30;99.90;;;;;;5115908;28;20481;-79
2021/06/25 01:20:35;;;;;;;2.58;1.27;;;17.30;99.90;;;;;;5124392;27;20576;-80
2021/06/25 01:23:05;;;;;;;3.00;1.23;;;17.30;99.90;;;;;;5132221;27;20067;-77
2021/06/25 01:25:36;;;;;;;2.03;1.10;;;17.30;99.90;;;;;;5116502;28;20084;-79
2021/06/25 01:28:06;;;;;;;2.53;1.00;;;17.30;99.90;;;;;;5115271;28;20565;-78
2021/06/25 01:30:36;;;;;;;3.10;1.27;;;17.30;99.90;;;;;;5115797;28;20131;-79
2021/06/25 01:33:06;;;;;;;2.25;1.10;;;17.20;99.90;;;;;;5116146;28;20138;-78
2021/06/25 01:35:34;;;;;;;3.13;1.30;;;17.20;99.90;;;;;;5115841;28;20134;-78
2021/06/25 01:38:02;;;;;;;2.30;1.30;;;17.20;99.90;;;;;;5115964;28;20079;-80
2021/06/25 01:40:30;;;;;;;2.90;1.15;;;17.20;99.90;;;;;;5115464;28;20055;-79
2021/06/25 01:42:59;;;;;;;5.40;1.20;;;17.20;99.90;;;;;;5115127;28;20055;-79
2021/06/25 01:45:30;;;;;;;2.25;1.00;;;17.10;99.90;;;;;;5115964;28;20071;-78
2021/06/25 01:47:58;;;;;;;2.30;1.17;;;17.10;99.90;;;;;;5117414;28;20500;-77
2021/06/25 01:50:28;;;;;;;2.97;1.30;;;17.10;99.90;;;;;;5116177;28;20075;-78
2021/06/25 01:52:57;;;;;;;2.92;1.17;;;17.00;99.90;;;;;;5116065;28;20071;-78
2021/06/25 01:55:27;;;;;;;2.30;1.20;;;17.00;99.90;;;;;;5115313;28;20130;-78
2021/06/25 01:57:55;;;;;;;2.28;1.17;;;17.00;99.90;;;;;;5115559;28;20126;-79
2021/06/25 02:00:23;;;;;;;2.00;0.98;;;17.00;99.90;;;;;;5115050;28;20138;-79
2021/06/25 02:02:50;;;;;;;2.13;1.05;;;16.90;99.90;;;;;;5115288;28;20539;-79
2021/06/25 02:05:17;;;;;;;4.30;1.00;;;16.90;99.90;;;;;;5115225;28;20135;-79
2021/06/25 02:07:44;;;;;;;1.80;0.98;;;16.90;99.90;;;;;;5115488;28;20453;-80
2021/06/25 02:10:13;;;;;;;2.50;1.10;;;16.90;99.90;;;;;;5115090;28;20138;-76
2021/06/25 02:12:41;;;;;;;2.17;1.00;;;17.00;99.90;;;;;;5114776;28;20121;-79
2021/06/25 02:15:11;;;;;;;1.88;1.05;;;16.90;99.90;;;;;;5115026;28;20086;-79
2021/06/25 02:17:38;;;;;;;2.67;1.00;;;17.00;99.90;;;;;;5113123;28;20484;-79
2021/06/25 02:20:08;;;;;;;3.33;1.20;;;17.00;99.90;;;;;;5114965;28;20075;-79
2021/06/25 02:22:35;;;;;;;2.35;0.98;;;17.00;99.90;;;;;;5114987;28;20122;-79
2021/06/25 02:25:02;;;;;;;3.55;1.05;;;17.00;99.90;;;;;;5114625;28;20130;-79
2021/06/25 02:27:29;;;;;;;2.42;1.00;;;17.00;99.90;;;;;;5106483;28;20138;-79
2021/06/25 02:29:58;;;;;;;2.30;1.10;;;17.00;99.90;;;;;;5114956;28;20123;-79
2021/06/25 02:32:25;;;;;;;2.67;1.05;;;17.00;99.90;;;;;;5114433;28;20600;-79
2021/06/25 02:34:52;;;;;;;2.13;1.10;;;17.00;99.90;;;;;;5114680;28;20086;-80
2021/06/25 02:37:19;;;;;;;2.80;1.15;;;17.00;99.90;;;;;;5114702;28;20122;-79
2021/06/25 02:39:46;;;;;;;2.80;0.90;;;17.00;99.90;;;;;;5113985;28;20131;-78
2021/06/25 02:42:13;;;;;;;2.10;1.00;;;17.00;99.90;;;;;;5114642;28;20082;-79
2021/06/25 02:44:40;;;;;;;2.70;1.00;;;17.00;99.90;;;;;;5115538;28;20122;-79
2021/06/25 02:47:09;;;;;;;2.50;1.10;;;17.10;99.90;;;;;;5128021;28;20043;-78
2021/06/25 02:49:36;;;;;;;2.20;1.00;;;17.10;99.90;;;;;;5114349;28;20166;-80
2021/06/25 02:52:03;;;;;;;2.00;0.90;;;17.10;99.90;;;;;;5113947;28;20048;-77
2021/06/25 02:54:30;;;;;;;2.75;1.23;;;17.10;99.90;;;;;;5113060;28;20071;-80
2021/06/25 02:56:57;;;;;;;2.80;1.10;;;17.10;99.90;;;;;;5114423;28;20123;-79
2021/06/25 02:59:24;;;;;;;2.60;1.17;;;17.10;99.90;;;;;;5113996;28;20130;-79
2021/06/25 03:01:51;;;;;;;1.80;1.00;;;17.10;99.90;;;;;;5114305;28;20082;-79
2021/06/25 03:04:20;;;;;;;2.70;1.02;;;17.10;99.90;;;;;;5111717;28;20036;-79
2021/06/25 03:06:47;;;;;;;3.35;1.10;;;17.10;99.90;;;;;;5111890;28;20071;-79
2021/06/25 03:09:14;;;;;;;3.13;1.10;;;17.10;99.90;;;;;;5110940;28;20122;-80
2021/06/25 03:11:41;;;;;;;2.20;1.10;;;17.10;99.90;;;;;;5111645;28;20558;-79
2021/06/25 03:14:08;;;;;;;2.50;1.00;;;17.10;99.90;;;;;;5111350;28;20130;-79
2021/06/25 03:16:35;;;;;;;2.35;1.10;;;17.10;99.90;;;;;;5111448;28;20086;-79
2021/06/25 03:19:03;;;;;;;3.92;1.10;;;17.10;99.90;;;;;;5111778;28;20126;-76
2021/06/25 03:21:31;;;;;;;2.75;1.05;;;17.10;99.90;;;;;;5111113;28;20518;-79
2021/06/25 03:23:58;;;;;;;2.80;0.90;;;17.10;99.90;;;;;;5112472;28;20086;-79
2021/06/25 03:26:25;;;;;;;3.88;1.20;;;17.10;99.90;;;;;;5111890;28;20126;-80
2021/06/25 03:28:52;;;;;;;3.40;1.17;;;17.00;99.90;;;;;;5111173;28;20127;-79
2021/06/25 03:31:22;;;;;;;2.00;0.90;;;17.00;99.90;;;;;;5111355;28;20130;-79
2021/06/25 03:33:49;;;;;;;2.60;1.15;;;17.00;99.90;;;;;;5111278;28;20163;-78
2021/06/25 03:36:16;;;;;;;2.30;1.10;;;17.10;99.90;;;;;;5119270;28;20108;-79
2021/06/25 03:38:46;;;;;;;2.20;1.10;;;17.10;99.90;;;;;;5121857;28;20071;-79
2021/06/25 03:41:13;;;;;;;3.08;1.13;;;17.10;99.90;;;;;;5121424;28;20089;-75
2021/06/25 03:43:40;;;;;;;3.17;1.10;;;17.10;99.90;;;;;;5121706;28;20468;-76
2021/06/25 03:46:07;;;;;;;2.72;1.08;;;17.10;99.90;;;;;;5121924;28;20062;-76
2021/06/25 03:48:34;;;;;;;2.08;1.00;;;17.10;99.90;;;;;;5113552;28;20134;-79
2021/06/25 03:51:01;;;;;;;2.40;1.00;;;17.10;99.90;;;;;;5121097;28;20078;-78
2021/06/25 03:53:28;;;;;;;2.05;1.10;;;17.10;99.90;;;;;;5121898;28;20512;-78
2021/06/25 03:56:12;;;;;;;2.20;1.00;;;17.00;99.90;;;;;;5122086;28;20156;-78
2021/06/25 03:58:42;;;;;;;3.08;1.23;;;17.10;99.90;;;;;;5115672;28;20069;-77
2021/06/25 04:01:12;;;;;;;3.97;1.30;;;17.10;99.90;;;;;;5122587;28;20078;-77
2021/06/25 04:03:40;;;;;;;2.97;1.20;;;17.10;99.90;;;;;;5124585;28;20073;-75
2021/06/25 04:06:08;;;;;;;2.67;1.30;;;17.10;99.90;;;;;;5119810;28;20071;-76
2021/06/25 04:08:36;;;;;;;2.60;1.30;;;17.10;99.90;;;;;;5117272;28;20039;-78
2021/06/25 04:11:06;;;;;;;3.75;1.25;;;17.10;99.90;;;;;;5123963;28;20043;-78
2021/06/25 04:13:35;;;;;;;2.17;1.17;;;17.10;99.90;;;;;;5117353;28;20134;-78
2021/06/25 04:16:02;;;;;;;2.83;1.20;;;17.10;99.90;;;;;;5123830;28;20066;-79
2021/06/25 04:18:29;;;;;;;2.60;1.02;;;17.10;99.90;;;;;;5123543;28;20079;-78
2021/06/25 04:20:58;;;;;;;3.47;1.20;;;17.10;99.90;;;;;;5123856;28;20067;-77
2021/06/25 04:23:25;;;;;;;2.33;1.00;;;17.20;99.90;;;;;;5132548;28;20046;-78
2021/06/25 04:25:52;;;;;;;2.92;1.35;;;17.20;99.90;;;;;;5133322;28;20089;-77
2021/06/25 04:28:22;;;;;;;3.25;1.15;;;17.20;99.90;;;;;;5154387;28;20043;-80
2021/06/25 04:30:50;;;;;;;2.20;1.10;;;17.10;99.90;;;;;;5128299;28;20061;-79
2021/06/25 04:33:17;;;;;;;4.25;1.40;;;17.10;99.90;;;;;;5129254;28;20074;-79
2021/06/25 04:35:48;;;;;;;2.20;1.00;;;17.10;99.90;;;;;;5124645;28;20074;-78
2021/06/25 04:38:15;;;;;;;2.10;0.95;;;17.10;99.90;;;;;;5123471;28;20055;-78
2021/06/25 04:40:45;;;;;;;2.03;1.00;;;17.10;99.90;;;;;;5127848;28;20071;-79
2021/06/25 04:43:15;;;;;;;1.90;1.00;;;17.10;99.90;;;;;;5129148;28;20048;-77
2021/06/25 04:45:45;;;;;;;2.58;1.20;;;17.10;99.90;;;;;;5093353;28;20544;-80
2021/06/25 04:48:13;;;;;;;2.88;1.30;;;17.10;99.90;;;;;;5128248;28;20078;-78
2021/06/25 04:50:41;;;;;;;3.97;1.13;;;17.20;99.90;;;;;;5128516;28;20071;-79
2021/06/25 04:53:08;;;;;;;3.05;1.35;;;17.20;99.90;;;;;;5111499;28;20052;-80
2021/06/25 04:55:41;;;;;;;2.17;1.10;;;17.20;99.90;;;;;;5111424;28;20069;-80
2021/06/25 04:58:10;;;;;;;3.45;1.20;;;17.20;99.90;;;;;;5104441;28;20473;-78
2021/06/25 05:00:38;;;;;;;3.45;1.30;;;17.30;99.90;;;;;;5116469;28;20126;-77
2021/06/25 05:03:07;;;;;;;3.53;1.00;;;17.20;99.90;;;;;;5117682;28;20105;-79
2021/06/25 05:05:35;;;;;;;3.47;1.20;;;17.20;99.90;;;;;;5116849;28;20044;-79
2021/06/25 05:08:02;;;;;;;4.03;1.08;;;17.20;99.90;;;;;;5116301;28;20134;-78
2021/06/25 05:10:29;;;;;;;1.83;0.95;;;17.20;99.90;;;;;;5116439;28;20130;-80
2021/06/25 05:12:56;;;;;;;2.28;1.15;;;17.20;99.90;;;;;;5116169;28;20143;-78
2021/06/25 05:15:23;;;;;;;1.90;0.90;;;17.10;99.90;;;;;;5116268;28;20130;-77
2021/06/25 05:17:51;;;;;;;2.53;1.10;;;17.10;99.90;;;;;;5116354;28;20134;-78
2021/06/25 05:20:20;;;;;;;2.83;1.10;;;17.10;99.90;;;;;;5115984;28;20135;-79
2021/06/25 05:22:48;;;;;;;3.67;1.27;;;17.10;99.90;;;;;;5115830;28;20157;-79
2021/06/25 05:25:16;;;;;;;2.15;0.98;;;17.10;99.90;;;;;;5116119;28;20075;-78
2021/06/25 05:27:43;;;;;;;1.80;0.90;;;17.10;99.90;;;;;;5097887;28;20416;-80
2021/06/25 05:30:13;;;;;;;3.22;1.10;;;17.10;99.90;;;;;;5115818;28;20075;-77
2021/06/25 05:32:40;;;;;;;2.78;0.98;;;17.10;99.90;;;;;;5097873;28;20055;-79
2021/06/25 05:35:08;;;;;;;2.47;1.27;;;17.10;99.90;;;;;;5097947;28;20086;-78
2021/06/25 05:37:36;;;;;;;3.22;1.20;;;17.10;99.90;;;;;;5115664;28;20119;-80
2021/06/25 05:40:05;;;;;;;2.03;1.00;;;17.10;99.90;;;;;;5115624;28;20138;-78
2021/06/25 05:42:32;;;;;;;2.38;1.10;;;17.10;99.90;;;;;;5115632;28;20553;-80
2021/06/25 05:45:00;;;;;;;2.60;1.00;;;17.10;99.90;;;;;;5097398;28;20382;-78
2021/06/25 05:47:27;;;;;;;2.55;0.70;;;17.10;99.90;;;;;;5097688;28;20156;-78
2021/06/25 05:49:54;;;;;;;2.67;0.90;;;17.10;99.90;;;;;;5097652;28;20123;-79
2021/06/25 05:52:21;;;;;;;2.60;0.90;;;17.10;99.90;;;;;;5100001;28;20107;-79
2021/06/25 05:54:49;;;;;;;2.15;0.90;;;17.10;99.90;;;;;;5127237;28;20079;-80
2021/06/25 05:57:17;;;;;;;1.83;0.90;;;17.10;99.90;;;;;;5105933;28;20047;-79
2021/06/25 05:59:44;;;;;;;3.55;0.90;;;17.10;99.90;;;;;;5115392;28;20138;-78
2021/06/25 06:02:11;;;;;;;1.52;0.80;;;17.10;99.90;;;;;;5115308;28;20138;-78
2021/06/25 06:04:38;;;;;;;1.63;0.80;;;17.10;99.90;;;;;;5097148;28;20461;-78
2021/06/25 06:07:06;;;;;;;2.53;0.90;;;17.00;99.90;;;;;;5115232;28;20078;-78
2021/06/25 06:09:34;;;;;;;1.42;0.70;;;17.00;99.90;;;;;;5115144;28;20047;-78
2021/06/25 06:12:02;;;;;;;1.95;0.80;;;17.00;99.90;;;;;;5115799;28;20142;-78
2021/06/25 06:14:29;;;;;;;1.83;0.80;;;17.10;99.90;;;;;;5115120;28;20131;-79
2021/06/25 06:16:57;;;;;;;2.00;0.95;;;17.10;99.90;;;;;;5098378;28;20131;-78
2021/06/25 06:19:24;;;;;;;1.73;0.90;;;17.10;99.90;;;;;;5115155;28;20051;-78
2021/06/25 06:32:59;;;;;;;2.13;0.70;;;17.10;99.90;;;;;;5114679;28;20166;-78
2021/06/25 06:35:27;;;;;;;1.73;0.82;;;17.20;99.90;;;;;;5114853;28;20141;-79
2021/06/25 06:38:01;;;;;;;1.63;0.80;;;17.20;99.90;;;;;;5130310;27;20043;-79
2021/06/25 06:40:28;;;;;;;2.17;1.08;;;17.20;99.90;;;;;;5129410;27;20063;-79
2021/06/25 06:42:57;;;;;;;1.52;0.73;;;17.30;99.90;;;;;;5117986;28;20078;-79
2021/06/25 06:45:24;;;;;;;1.38;0.70;;;17.40;99.90;;;;;;5132362;28;20075;-78
2021/06/25 06:47:51;;;;;;;1.60;0.80;;;17.50;99.90;;;;;;5119471;28;20525;-77
2021/06/25 06:50:19;;;;;;;1.40;0.63;;;17.50;99.90;;;;;;5114609;28;20074;-78
2021/06/25 06:52:49;;;;;;;1.35;0.68;;;17.50;99.90;;;;;;5120820;28;20535;-76
2021/06/25 06:55:18;;;;;;;2.03;0.70;;;17.60;99.90;;;;;;5125830;28;20044;-77
2021/06/25 06:57:47;;;;;;;1.40;0.65;;;17.60;99.90;;;;;;5114581;28;20055;-78
2021/06/25 07:00:18;;;;;;;1.42;0.70;;;17.70;99.90;;;;;;5114457;28;20138;-79
2021/06/25 07:02:45;;;;;;;2.70;0.80;;;17.70;99.90;;;;;;5113592;28;20530;-79
2021/06/25 07:05:15;;;;;;;1.50;0.65;;;17.80;99.90;;;;;;5114288;28;20047;-78
2021/06/25 07:07:43;;;;;;;1.45;0.55;;;17.80;99.90;;;;;;5114213;28;20481;-77
2021/06/25 07:10:12;;;;;;;2.22;0.60;;;17.90;99.90;;;;;;5113922;28;20148;-79
2021/06/25 07:12:41;;;;;;;2.47;0.70;;;18.00;99.90;;;;;;5113905;28;20571;-77
2021/06/25 07:15:09;;;;;;;2.22;0.80;;;18.00;99.90;;;;;;5114033;28;20504;-78
2021/06/25 07:17:38;;;;;;;2.63;0.70;;;18.10;99.90;;;;;;5113829;28;20096;-78
2021/06/25 07:20:07;;;;;;;2.05;0.70;;;18.10;99.90;;;;;;5113908;28;20122;-79
2021/06/25 07:22:34;;;;;;;1.35;0.63;;;18.10;99.90;;;;;;5113714;28;20086;-78
2021/06/25 07:25:01;;;;;;;1.75;0.70;;;18.20;99.90;;;;;;5113986;28;20075;-79
2021/06/25 07:27:29;;;;;;;1.77;0.80;;;18.20;99.90;;;;;;5113950;28;20043;-79
2021/06/25 07:29:56;;;;;;;2.08;0.70;;;18.30;99.90;;;;;;5113824;28;20044;-80
2021/06/25 07:32:23;;;;;;;1.30;0.57;;;18.30;99.90;;;;;;5113815;28;20130;-77
2021/06/25 07:34:52;;;;;;;1.23;0.52;;;18.30;99.90;;;;;;5113674;28;20581;-79
2021/06/25 07:37:19;;;;;;;1.83;0.80;;;18.30;99.90;;;;;;5113601;28;20107;-79
2021/06/25 07:39:46;;;;;;;1.60;0.85;;;18.30;99.90;;;;;;5113564;28;20095;-79
2021/06/25 07:42:13;;;;;;;1.65;0.77;;;18.30;99.90;;;;;;5113524;28;20143;-79
2021/06/25 07:44:40;;;;;;;2.22;0.90;;;18.30;99.90;;;;;;5113494;28;20139;-78
2021/06/25 07:47:07;;;;;;;1.80;0.70;;;18.20;99.90;;;;;;5113569;28;20459;-78
2021/06/25 07:49:35;;;;;;;1.88;0.80;;;18.30;99.90;;;;;;5113399;28;20130;-78
2021/06/25 07:52:03;;;;;;;1.27;0.73;;;18.30;99.90;;;;;;5113593;28;20043;-78
2021/06/25 07:54:30;;;;;;;1.48;0.70;;;18.20;99.90;;;;;;5113414;28;20139;-77
2021/06/25 07:56:58;;;;;;;1.85;0.85;;;18.20;99.90;;;;;;5113284;28;20454;-79
2021/06/25 07:59:25;;;;;;;1.25;0.60;;;18.10;99.90;;;;;;5113351;28;20130;-79
2021/06/25 08:01:52;;;;;;;2.85;0.80;;;18.10;99.90;;;;;;5113356;28;20075;-79
2021/06/25 08:04:19;;;;;;;1.80;0.73;;;18.10;99.90;;;;;;5113199;28;20127;-77
2021/06/25 08:06:46;;;;;;;1.55;0.80;;;18.10;99.90;;;;;;5113305;28;20050;-80
2021/06/25 08:09:14;;;;;;;2.15;0.80;;;18.00;99.90;;;;;;5113515;28;20127;-79
2021/06/25 08:11:42;;;;;;;2.92;0.98;;;18.00;99.90;;;;;;5113359;28;20135;-79
2021/06/25 08:14:09;;;;;;;1.60;0.80;;;18.00;99.90;;;;;;5114687;28;20043;-80
2021/06/25 08:16:36;;;;;;;2.28;1.00;;;17.90;99.90;;;;;;5117251;28;20462;-80
2021/06/25 08:19:03;;;;;;;2.97;1.10;;;17.90;99.90;;;;;;5117270;28;20093;-78
2021/06/25 08:21:31;;;;;;;2.15;1.02;;;17.90;99.90;;;;;;5117441;28;20048;-80
2021/06/25 08:23:59;;;;;;;2.45;1.17;;;17.90;99.90;;;;;;5116688;28;20131;-79
2021/06/25 08:26:29;;;;;;;2.00;0.90;;;17.90;99.90;;;;;;5117348;28;20044;-79
2021/06/25 08:28:56;;;;;;;2.70;0.80;;;17.90;99.90;;;;;;5125410;28;20044;-79
2021/06/25 08:31:23;;;;;;;2.40;1.00;;;17.90;99.90;;;;;;5122434;28;20123;-78
2021/06/25 08:33:51;;;;;;;2.42;0.90;;;18.00;99.90;;;;;;5114602;28;20083;-79
2021/06/25 08:36:18;;;;;;;2.38;1.10;;;18.00;99.90;;;;;;5114292;28;20139;-77
2021/06/25 08:38:45;;;;;;;2.28;1.10;;;18.00;99.90;;;;;;5114889;28;20058;-78
2021/06/25 08:41:13;;;;;;;2.90;1.23;;;18.00;99.90;;;;;;5114190;28;20087;-78
2021/06/25 08:43:41;;;;;;;3.45;1.20;;;18.10;99.90;;;;;;5114475;28;20047;-78
2021/06/25 08:46:11;;;;;;;2.38;1.15;;;18.10;99.90;;;;;;5113805;28;20131;-78
2021/06/25 08:48:39;;;;;;;2.25;1.10;;;18.00;99.90;;;;;;5114507;28;20508;-76
2021/06/25 08:51:10;;;;;;;2.17;0.98;;;18.00;99.90;;;;;;5114449;28;20122;-78
2021/06/25 08:53:37;;;;;;;2.33;1.10;;;18.00;99.90;;;;;;5114347;28;20047;-79
2021/06/25 08:56:05;;;;;;;2.33;1.20;;;18.00;99.90;;;;;;5113771;28;20135;-79
2021/06/25 08:58:32;;;;;;;2.40;1.15;;;18.00;99.90;;;;;;5113748;28;20162;-79
2021/06/25 09:01:01;;;;;;;2.28;1.00;;;17.90;99.90;;;;;;5114184;28;20150;-78
2021/06/25 09:03:33;;;;;;;2.08;1.00;;;17.80;99.90;;;;;;5114177;28;20051;-80
2021/06/25 09:06:10;;;;;;;1.92;0.95;;;17.80;99.90;;;;;;5114412;28;20054;-78
2021/06/25 09:08:37;;;;;;;2.47;1.10;;;17.80;99.90;;;;;;5079353;28;20135;-78
2021/06/25 09:11:23;;;;;;;2.20;0.93;;;17.80;99.90;;;;;;5113955;28;20429;-78
2021/06/25 09:13:57;;;;;;;2.88;1.00;;;17.80;99.90;;;;;;5079362;28;20055;-78
2021/06/25 09:16:28;;;;;;;3.00;1.10;;;17.70;99.90;;;;;;5114149;28;20123;-78
2021/06/25 09:19:04;;;;;;;2.20;1.00;;;17.60;99.90;;;;;;5115511;28;20501;-79
2021/06/25 09:21:33;;;;;;;2.22;1.00;;;17.60;99.90;;;;;;5096164;28;20408;-75
2021/06/25 09:24:17;;;;;;;2.25;1.00;;;17.60;99.90;;;;;;5113767;28;20523;-77
2021/06/25 09:26:47;;;;;;;2.30;1.05;;;17.60;99.90;;;;;;5077658;28;20051;-78
2021/06/25 09:29:17;;;;;;;1.98;1.00;;;17.60;99.90;;;;;;5113691;28;20044;-78
2021/06/25 09:31:45;;;;;;;2.55;1.15;;;17.50;99.90;;;;;;5113393;28;20135;-78
2021/06/25 09:34:12;;;;;;;3.40;1.10;;;17.50;99.90;;;;;;5094974;28;20053;-79
2021/06/25 09:36:40;;;;;;;2.28;1.10;;;17.50;99.90;;;;;;5113375;28;20479;-79
2021/06/25 09:39:11;;;;;;;2.05;1.02;;;17.60;99.90;;;;;;5112876;28;20496;-79
2021/06/25 09:41:41;;;;;;;2.03;0.90;;;17.60;99.90;;;;;;5113328;28;20131;-78
2021/06/25 09:44:12;;;;;;;2.28;1.10;;;17.60;99.90;;;;;;5112804;28;20127;-78
2021/06/25 09:46:43;;;;;;;2.33;1.15;;;17.60;99.90;;;;;;5113363;28;20123;-79
2021/06/25 09:49:13;;;;;;;2.65;1.20;;;17.60;99.90;;;;;;5113133;28;20075;-78
2021/06/25 09:51:54;;;;;;;2.33;1.08;;;17.60;99.90;;;;;;5112868;28;20051;-77
2021/06/25 09:54:21;;;;;;;2.50;1.10;;;17.60;99.90;;;;;;5112938;28;20058;-77
2021/06/25 09:56:54;;;;;;;2.30;1.10;;;17.70;99.90;;;;;;5113065;28;20130;-77
2021/06/25 10:02:29;;;;;;;2.38;1.23;;;17.70;99.90;;;;;;5118077;28;20605;-78
2021/06/25 10:05:02;;;;;;;2.45;1.10;;;17.60;99.90;;;;;;5138628;27;20051;-75
2021/06/25 10:07:31;;;;;;;2.85;1.50;;;17.60;99.90;;;;;;5114604;27;20490;-79
2021/06/25 10:10:02;;;;;;;3.40;1.50;;;17.70;99.90;;;;;;5112371;28;20078;-79
2021/06/25 10:12:29;;;;;;;2.50;1.10;;;17.70;99.90;;;;;;5112083;28;20546;-79
2021/06/25 10:14:56;;;;;;;2.25;1.05;;;17.70;99.90;;;;;;5111705;28;20461;-79
2021/06/25 10:17:28;;;;;;;2.38;1.20;;;17.80;99.90;;;;;;5111282;28;20130;-79
2021/06/25 10:20:06;;;;;;;2.50;1.20;;;17.80;99.90;;;;;;5111436;28;20049;-77
2021/06/25 10:22:36;;;;;;;2.47;1.38;;;17.80;99.90;;;;;;5091982;28;20127;-80
2021/06/25 10:25:05;;;;;;;2.30;1.10;;;17.80;99.90;;;;;;5078011;28;20558;-79
2021/06/25 10:27:35;;;;;;;2.92;1.30;;;17.80;99.90;;;;;;5111917;28;20569;-79
2021/06/25 10:30:03;;;;;;;2.70;1.38;;;17.80;99.90;;;;;;5110999;28;20408;-79
2021/06/25 10:32:31;;;;;;;2.28;1.30;;;17.90;99.90;;;;;;5111662;28;20134;-79
2021/06/25 10:34:58;;;;;;;3.25;1.20;;;17.90;99.90;;;;;;5111529;28;20574;-79
2021/06/25 10:37:28;;;;;;;2.20;1.10;;;17.80;99.90;;;;;;5092495;28;20059;-79
2021/06/25 10:39:56;;;;;;;2.53;1.23;;;17.80;99.90;;;;;;5107922;28;20056;-79
2021/06/25 10:42:40;;;;;;;2.70;1.23;;;17.80;99.90;;;;;;5122108;27;20036;-78
2021/06/25 10:45:08;;;;;;;2.78;1.13;;;17.90;99.90;;;;;;5125536;27;20049;-80
2021/06/25 10:47:36;;;;;;;2.33;1.20;;;18.00;99.90;;;;;;5118466;27;20134;-80
2021/06/25 10:50:21;;;;;;;2.55;1.30;;;18.00;99.90;;;;;;5093108;28;20127;-79
2021/06/25 10:53:16;;;;;;;2.65;1.60;;;18.10;99.90;;;;;;5093136;28;20496;-79
2021/06/25 10:56:05;;;;;;;3.10;1.60;;;18.10;99.90;;;;;;5104590;28;20044;-79
2021/06/25 10:58:33;;;;;;;3.22;1.50;;;18.10;99.90;;;;;;5091590;28;20051;-79
2021/06/25 11:01:02;;;;;;;3.08;1.70;;;18.10;99.90;;;;;;5110664;28;20142;-80
2021/06/25 11:03:43;;;;;;;3.65;2.00;;;18.10;99.90;;;;;;5110247;28;20043;-78
2021/06/25 11:06:54;;;;;;;2.92;1.88;;;18.10;99.90;;;;;;5093018;28;20174;-79
2021/06/25 11:09:24;;;;;;;3.58;1.92;;;18.20;99.90;;;;;;5110227;28;20071;-78
2021/06/25 11:12:20;;;;;;;3.78;1.80;;;18.30;99.90;;;;;;5108937;27;20109;-80
2021/06/25 11:14:48;;;;;;;2.78;1.67;;;18.40;99.90;;;;;;5116481;27;20507;-79
2021/06/25 11:17:50;;;;;;;3.53;2.10;;;18.50;99.90;;;;;;5112604;27;20047;-78
2021/06/25 11:20:29;;;;;;;3.00;1.80;;;18.60;99.90;;;;;;5111640;28;20073;-79
2021/06/25 11:23:09;;;;;;;2.88;1.60;;;18.60;99.90;;;;;;5111888;28;20561;-80
2021/06/25 11:25:45;;;;;;;3.35;1.60;;;18.70;99.90;;;;;;5112090;28;20130;-79
2021/06/25 11:28:27;;;;;;;3.67;1.92;;;18.70;99.90;;;;;;5111758;28;20047;-87
2021/06/25 11:31:23;;;;;;;2.78;1.70;;;18.90;99.90;;;;;;5112733;28;20390;-84
2021/06/25 11:33:55;;;;;;;2.95;1.50;;;19.00;99.90;;;;;;5085918;28;20097;-82
2021/06/25 11:36:38;;;;;;;2.50;1.40;;;19.10;99.90;;;;;;5106916;28;20043;-78
2021/06/25 11:39:13;;;;;;;4.13;1.90;;;19.20;99.90;;;;;;5109193;28;20043;-78
2021/06/25 11:41:49;;;;;;;3.90;1.80;;;19.20;99.90;;;;;;5091139;28;20334;-79
2021/06/25 11:44:19;;;;;;;2.67;1.50;;;19.20;99.90;;;;;;5091814;28;20796;-78
2021/06/25 11:47:01;;;;;;;2.88;1.75;;;19.20;99.90;;;;;;5091578;28;20043;-79
2021/06/25 11:49:37;;;;;;;2.60;1.50;;;19.20;99.90;;;;;;5090460;28;20101;-79
2021/06/25 11:52:08;;;;;;;2.90;1.50;;;19.20;99.90;;;;;;5092428;28;20047;-78
2021/06/25 11:54:36;;;;;;;3.10;1.70;;;19.20;99.90;;;;;;5109820;28;20548;-78
2021/06/25 11:57:14;;;;;;;2.80;1.40;;;19.20;99.90;;;;;;5109775;28;20529;-78
2021/06/25 11:59:41;;;;;;;3.42;2.00;;;19.30;99.90;;;;;;5109878;28;20156;-78
2021/06/25 12:02:09;;;;;;;3.67;1.98;;;19.30;99.90;;;;;;5109313;28;20471;-78
2021/06/25 12:04:42;;;;;;;3.20;1.80;;;19.30;99.90;;;;;;5096033;28;20059;-78
2021/06/25 12:07:12;;;;;;;3.75;1.88;;;19.30;99.90;;;;;;5122075;28;20416;-78
2021/06/25 12:09:45;;;;;;;3.75;2.30;;;19.30;99.90;;;;;;5110067;28;20073;-78
2021/06/25 12:12:28;;;;;;;3.90;2.50;;;19.30;99.90;;;;;;5109345;28;20542;-79
2021/06/25 12:14:59;;;;;;;3.63;2.10;;;19.30;99.90;;;;;;5091126;28;20583;-79
2021/06/25 12:17:41;;;;;;;3.50;2.15;;;19.30;99.90;;;;;;5109115;28;20551;-79
2021/06/25 12:20:11;;;;;;;3.28;1.92;;;19.30;99.90;;;;;;5109536;28;20134;-79
2021/06/25 12:22:54;;;;;;;4.10;2.42;;;19.20;99.90;;;;;;5109276;28;20126;-78
2021/06/25 12:25:35;;;;;;;3.40;2.05;;;19.30;99.90;;;;;;5109858;28;20090;-80
2021/06/25 12:28:10;;;;;;;3.30;2.08;;;19.30;99.90;;;;;;5112833;28;20046;-78
2021/06/25 12:30:42;;;;;;;5.03;2.10;;;19.30;99.90;;;;;;5117925;28;20067;-78
2021/06/25 12:33:10;;;;;;;3.35;2.20;;;19.40;99.90;;;;;;5112045;28;20120;-79
2021/06/25 12:35:39;;;;;;;3.22;1.98;;;19.50;99.90;;;;;;5110223;28;20052;-80
2021/06/25 12:38:10;;;;;;;3.22;1.90;;;19.70;99.90;;;;;;5098710;28;20401;-77
2021/06/25 12:40:49;;;;;;;3.00;1.80;;;19.80;99.90;;;;;;5108666;28;20091;-75
2021/06/25 12:43:22;;;;;;;4.20;2.30;;;20.00;99.90;;;;;;5113619;28;20083;-79
2021/06/25 12:45:52;;;;;;;3.70;2.30;;;20.10;99.70;;;;;;5110956;28;20082;-79
2021/06/25 12:48:23;;;;;;;4.53;2.55;;;20.20;99.90;;;;;;5092004;28;20123;-79
2021/06/25 12:50:57;;;;;;;3.90;2.72;;;20.20;99.00;;;;;;5109884;28;20131;-78
2021/06/25 12:53:29;;;;;;;4.50;2.95;;;20.20;98.70;;;;;;5109326;28;20044;-77
2021/06/25 12:55:57;;;;;;;4.65;2.63;;;20.20;98.50;;;;;;5113733;28;20115;-77
2021/06/25 12:58:27;;;;;;;4.03;2.63;;;20.10;98.70;;;;;;5091076;28;20135;-76
2021/06/25 13:00:58;;;;;;;4.25;2.67;;;20.00;98.60;;;;;;5111024;28;20039;-75
2021/06/25 13:03:27;;;;;;;4.20;2.67;;;20.10;99.10;;;;;;5112661;28;20043;-78
2021/06/25 13:05:55;;;;;;;4.10;2.70;;;20.20;99.30;;;;;;5113069;27;20468;-77
2021/06/25 13:08:26;;;;;;;4.50;2.78;;;20.30;99.50;;;;;;5111908;28;20056;-78
2021/06/25 13:10:56;;;;;;;4.10;2.85;;;20.40;99.70;;;;;;5113249;28;20085;-76
2021/06/25 13:13:30;;;;;;;4.05;2.75;;;20.60;99.30;;;;;;5112846;28;20127;-78
2021/06/25 13:16:00;;;;;;;4.00;2.78;;;20.80;99.00;;;;;;5094569;28;20083;-77